createdAt,value
2018-04-22T00:01:41.159Z,18.45
2018-04-22T00:04:10.462Z,20.25
2018-04-22T00:06:40.562Z,17.77
2018-04-22T00:09:09.904Z,19.15
2018-04-22T00:11:39.246Z,19.20
2018-04-22T00:14:08.553Z,19.42
2018-04-22T00:16:37.885Z,21.52
2018-04-22T00:19:07.956Z,19.67
2018-04-22T00:21:37.290Z,21.37
2018-04-22T00:24:06.597Z,19.95
2018-04-22T00:26:35.886Z,19.60
2018-04-22T00:29:05.231Z,18.52
2018-04-22T00:31:34.524Z,18.60
2018-04-22T00:34:04.657Z,19.00
2018-04-22T00:36:33.945Z,19.42
2018-04-22T00:39:04.078Z,20.50
2018-04-22T00:41:33.490Z,19.95
2018-04-22T00:44:02.807Z,19.75
2018-04-22T00:46:32.556Z,19.35
2018-04-22T00:49:01.831Z,18.80
2018-04-22T00:51:31.150Z,19.85
2018-04-22T00:54:18.054Z,18.30
2018-04-22T00:56:47.349Z,19.02
2018-04-22T00:59:16.677Z,19.48
2018-04-22T01:01:46.739Z,19.62
2018-04-22T01:04:16.077Z,18.23
2018-04-22T01:06:45.374Z,18.05
2018-04-22T01:09:14.683Z,19.02
2018-04-22T01:11:44.033Z,18.73
2018-04-22T01:14:13.321Z,17.85
2018-04-22T01:16:43.448Z,18.67
2018-04-22T01:19:12.744Z,17.33
2018-04-22T01:21:42.029Z,18.40
2018-04-22T01:24:12.909Z,18.02
2018-04-22T01:26:42.203Z,19.23
2018-04-22T01:29:11.497Z,19.52
2018-04-22T01:31:40.823Z,18.65
2018-04-22T01:34:10.128Z,19.02
2018-04-22T01:36:39.440Z,18.87
2018-04-22T01:39:08.897Z,19.87
2018-04-22T01:41:39.107Z,20.15
2018-04-22T01:44:08.382Z,20.45
2018-04-22T01:46:37.693Z,20.02
2018-04-22T01:49:07.858Z,18.73
2018-04-22T01:51:37.177Z,18.70
2018-04-22T01:54:07.541Z,19.70
2018-04-22T01:56:37.642Z,17.45
2018-04-22T01:59:07.002Z,17.73
2018-04-22T02:01:36.424Z,19.83
2018-04-22T02:04:05.716Z,20.27
2018-04-22T02:06:35.055Z,18.23
2018-04-22T02:09:04.349Z,18.70
2018-04-22T02:11:33.701Z,19.33
2018-04-22T02:14:03.019Z,18.52
2018-04-22T02:16:32.319Z,19.30
2018-04-22T02:19:01.712Z,19.70
2018-04-22T02:21:31.366Z,20.65
2018-04-22T02:24:00.682Z,18.60
2018-04-22T02:26:30.015Z,19.17
2018-04-22T02:28:59.531Z,17.55
2018-04-22T02:31:28.827Z,18.90
2018-04-22T02:33:58.945Z,19.25
2018-04-22T02:36:28.252Z,18.77
2018-04-22T02:38:57.570Z,20.65
2018-04-22T02:41:26.863Z,19.20
2018-04-22T02:43:56.157Z,19.77
2018-04-22T02:46:25.482Z,17.60
2018-04-22T02:48:54.779Z,19.15
2018-04-22T02:51:24.073Z,19.80
2018-04-22T02:53:53.408Z,19.20
2018-04-22T02:56:22.690Z,18.95
2018-04-22T02:58:52.055Z,19.12
2018-04-22T03:01:21.361Z,20.85
2018-04-22T03:03:50.650Z,18.77
2018-04-22T03:06:19.969Z,20.12
2018-04-22T03:08:49.291Z,18.85
2018-04-22T03:11:18.589Z,19.75
2018-04-22T03:13:47.921Z,19.70
2018-04-22T03:16:17.237Z,19.08
2018-04-22T03:18:46.533Z,18.95
2018-04-22T03:21:15.875Z,19.95
2018-04-22T03:23:45.170Z,21.10
2018-04-22T03:26:14.471Z,20.88
2018-04-22T03:28:43.829Z,19.48
2018-04-22T03:31:13.877Z,21.10
2018-04-22T03:33:43.202Z,19.08
2018-04-22T03:36:13.408Z,19.87
2018-04-22T03:38:42.741Z,19.85
2018-04-22T03:41:12.028Z,20.83
2018-04-22T03:43:41.310Z,20.50
2018-04-22T03:46:10.607Z,19.62
2018-04-22T03:48:39.959Z,19.48
2018-04-22T03:51:09.252Z,18.92
2018-04-22T03:53:38.550Z,19.98
2018-04-22T03:56:07.865Z,19.95
2018-04-22T03:58:37.192Z,20.62
2018-04-22T04:01:06.513Z,19.70
2018-04-22T04:03:35.822Z,19.60
2018-04-22T04:06:05.143Z,19.17
2018-04-22T04:08:34.437Z,20.05
2018-04-22T04:11:03.743Z,20.35
2018-04-22T04:13:33.052Z,19.17
2018-04-22T04:16:02.355Z,20.58
2018-04-22T04:22:08.488Z,19.95
2018-04-22T04:24:55.402Z,21.27
2018-04-22T04:30:27.286Z,20.75
2018-04-22T04:32:57.125Z,19.77
2018-04-22T04:35:29.053Z,19.50
2018-04-22T04:37:58.998Z,20.27
2018-04-22T04:40:29.910Z,19.70
2018-04-22T04:43:00.671Z,20.85
2018-04-22T04:45:31.666Z,19.12
2018-04-22T04:48:01.935Z,22.05
2018-04-22T04:50:31.499Z,19.27
2018-04-22T04:53:01.362Z,20.70
2018-04-22T04:55:31.631Z,21.02
2018-04-22T04:58:02.541Z,20.08
2018-04-22T05:00:33.531Z,20.80
2018-04-22T05:03:04.328Z,20.60
2018-04-22T05:05:34.921Z,19.85
2018-04-22T05:08:04.839Z,22.95
2018-04-22T05:10:35.888Z,20.48
2018-04-22T05:13:06.519Z,20.30
2018-04-22T05:15:37.606Z,22.65
2018-04-22T05:18:07.618Z,20.10
2018-04-22T05:20:38.437Z,20.80
2018-04-22T05:23:08.606Z,20.80
2018-04-22T05:25:38.743Z,21.80
2018-04-22T05:28:10.524Z,19.20
2018-04-22T05:30:42.040Z,20.05
2018-04-22T05:33:12.560Z,17.85
2018-04-22T05:35:43.791Z,18.12
2018-04-22T05:38:14.156Z,18.70
2018-04-22T05:40:44.200Z,18.48
2018-04-22T05:43:14.228Z,17.48
2018-04-22T05:45:44.471Z,18.27
2018-04-22T05:48:14.431Z,18.65
2018-04-22T05:50:44.855Z,17.27
2018-04-22T05:53:15.015Z,18.10
2018-04-22T05:55:45.271Z,16.05
2018-04-22T05:58:15.887Z,17.58
2018-04-22T06:00:46.023Z,16.30
2018-04-22T06:03:16.124Z,15.82
2018-04-22T06:05:47.263Z,16.23
2018-04-22T06:08:17.766Z,17.45
2018-04-22T06:10:49.547Z,16.35
2018-04-22T06:13:20.093Z,16.60
2018-04-22T06:15:52.448Z,17.65
2018-04-22T06:18:25.362Z,17.20
2018-04-22T06:20:55.854Z,16.52
2018-04-22T06:23:25.603Z,17.52
2018-04-22T06:25:54.963Z,15.70
2018-04-22T06:28:24.286Z,16.00
2018-04-22T06:30:54.351Z,17.35
2018-04-22T06:33:23.658Z,16.73
2018-04-22T06:35:52.941Z,15.82
2018-04-22T06:38:22.278Z,15.88
2018-04-22T06:40:51.588Z,16.30
2018-04-22T06:43:20.878Z,15.80
2018-04-22T06:45:50.258Z,16.45
2018-04-22T06:48:19.604Z,16.27
2018-04-22T06:50:48.909Z,16.42
2018-04-22T06:53:19.014Z,16.60
2018-04-22T06:55:49.096Z,16.42
2018-04-22T06:58:18.406Z,16.02
2018-04-22T07:00:47.711Z,15.48
2018-04-22T07:03:17.015Z,16.92
2018-04-22T07:05:46.323Z,16.70
2018-04-22T07:08:15.615Z,17.10
2018-04-22T07:10:44.937Z,15.45
2018-04-22T07:13:14.217Z,17.10
2018-04-22T07:15:43.526Z,15.30
2018-04-22T07:18:12.879Z,17.27
2018-04-22T07:20:42.187Z,15.57
2018-04-22T07:23:11.492Z,14.65
2018-04-22T07:25:40.831Z,15.00
2018-04-22T07:28:10.142Z,15.32
2018-04-22T07:30:39.424Z,15.40
2018-04-22T07:33:08.755Z,14.82
2018-04-22T07:35:38.819Z,13.75
2018-04-22T07:38:09.307Z,15.43
2018-04-22T07:40:38.637Z,15.13
2018-04-22T07:43:07.882Z,14.77
2018-04-22T07:45:37.182Z,15.23
2018-04-22T07:48:06.496Z,14.10
2018-04-22T07:50:35.780Z,15.90
2018-04-22T07:53:05.082Z,14.68
2018-04-22T07:55:34.447Z,15.05
2018-04-22T07:58:03.723Z,15.20
2018-04-22T08:00:33.808Z,14.10
2018-04-22T08:03:03.101Z,13.55
2018-04-22T08:05:32.409Z,13.98
2018-04-22T08:08:01.703Z,13.75
2018-04-22T08:10:30.984Z,13.00
2018-04-22T08:13:01.271Z,13.93
2018-04-22T08:15:31.803Z,14.65
2018-04-22T08:18:01.830Z,14.90
2018-04-22T08:20:32.106Z,13.20
2018-04-22T08:23:01.484Z,12.30
2018-04-22T08:25:30.775Z,13.30
2018-04-22T08:28:01.013Z,11.50
2018-04-22T08:30:30.323Z,11.02
2018-04-22T08:32:59.614Z,12.50
2018-04-22T08:35:28.938Z,11.32
2018-04-22T08:37:58.972Z,9.55
2018-04-22T08:40:29.057Z,10.40
2018-04-22T08:42:58.355Z,9.02
2018-04-22T08:45:27.649Z,9.82
2018-04-22T08:47:56.953Z,10.48
2018-04-22T08:50:26.264Z,9.57
2018-04-22T08:52:55.621Z,10.77
2018-04-22T08:55:24.913Z,9.25
2018-04-22T08:57:54.221Z,8.38
2018-04-22T09:00:23.546Z,8.05
2018-04-22T09:02:52.834Z,9.48
2018-04-22T09:05:22.145Z,8.48
2018-04-22T09:07:51.465Z,9.82
2018-04-22T09:10:20.783Z,9.63
2018-04-22T09:12:50.053Z,10.07
2018-04-22T09:15:19.365Z,9.38
2018-04-22T09:17:48.652Z,8.48
2018-04-22T09:20:17.955Z,8.40
2018-04-22T09:22:47.288Z,9.20
2018-04-22T09:25:16.591Z,9.00
2018-04-22T09:27:45.900Z,8.98
2018-04-22T09:30:15.216Z,9.30
2018-04-22T09:32:45.369Z,8.30
2018-04-22T09:35:14.857Z,9.02
2018-04-22T09:37:44.174Z,8.95
2018-04-22T09:40:13.481Z,10.77
2018-04-22T09:42:42.761Z,9.75
2018-04-22T09:45:12.081Z,9.60
2018-04-22T09:47:41.376Z,8.50
2018-04-22T09:50:10.690Z,8.48
2018-04-22T09:52:39.973Z,9.05
2018-04-22T09:55:09.276Z,8.48
2018-04-22T09:57:38.586Z,8.30
2018-04-22T10:00:07.879Z,8.65
2018-04-22T10:02:37.185Z,8.93
2018-04-22T10:05:08.421Z,8.40
2018-04-22T10:07:37.742Z,8.52
2018-04-22T10:10:07.048Z,8.43
2018-04-22T10:12:36.949Z,7.55
2018-04-22T10:15:06.258Z,8.55
2018-04-22T10:17:35.590Z,7.90
2018-04-22T10:20:05.684Z,8.65
2018-04-22T10:22:34.970Z,7.37
2018-04-22T10:25:04.243Z,8.70
2018-04-22T10:27:33.554Z,7.55
2018-04-22T10:30:02.868Z,7.85
2018-04-22T10:32:32.266Z,8.10
2018-04-22T10:35:01.551Z,7.35
2018-04-22T10:37:30.847Z,7.65
2018-04-22T10:40:00.149Z,7.82
2018-04-22T10:42:29.443Z,8.15
2018-04-22T10:44:58.750Z,8.55
2018-04-22T10:47:28.024Z,8.40
2018-04-22T10:49:58.081Z,8.63
2018-04-22T10:52:27.384Z,8.45
2018-04-22T10:54:56.693Z,9.60
2018-04-22T10:57:25.985Z,8.43
2018-04-22T10:59:55.336Z,8.20
2018-04-22T11:02:24.582Z,8.70
2018-04-22T11:04:53.862Z,8.57
2018-04-22T11:07:23.214Z,8.00
2018-04-22T11:09:52.498Z,9.10
2018-04-22T11:12:21.817Z,9.45
2018-04-22T11:14:51.224Z,8.50
2018-04-22T11:17:20.524Z,8.50
2018-04-22T11:19:50.620Z,6.93
2018-04-22T11:22:19.926Z,7.00
2018-04-22T11:24:49.247Z,6.57
2018-04-22T11:27:18.538Z,7.37
2018-04-22T11:29:47.842Z,7.15
2018-04-22T11:32:17.146Z,6.37
2018-04-22T11:34:46.436Z,5.80
2018-04-22T11:37:15.747Z,5.22
2018-04-22T11:39:45.030Z,5.37
2018-04-22T11:42:14.315Z,5.68
2018-04-22T11:44:43.610Z,5.80
2018-04-22T11:47:12.936Z,5.90
2018-04-22T11:49:42.224Z,5.95
2018-04-22T11:52:11.532Z,5.65
2018-04-22T11:54:40.817Z,5.10
2018-04-22T11:57:10.145Z,4.70
2018-04-22T11:59:40.995Z,5.12
2018-04-22T12:02:10.298Z,4.75
2018-04-22T12:04:39.599Z,5.43
2018-04-22T12:07:08.918Z,5.65
2018-04-22T12:09:38.996Z,5.70
2018-04-22T12:12:08.275Z,5.85
2018-04-22T12:14:37.614Z,5.75
2018-04-22T12:17:06.879Z,5.60
2018-04-22T12:19:36.779Z,5.62
2018-04-22T12:22:06.163Z,5.35
2018-04-22T12:24:35.450Z,4.95
2018-04-22T12:27:05.512Z,5.25
2018-04-22T12:29:34.801Z,4.85
2018-04-22T12:32:04.108Z,5.35
2018-04-22T12:34:33.415Z,5.78
2018-04-22T12:37:02.738Z,5.20
2018-04-22T12:39:32.006Z,4.75
2018-04-22T12:42:01.307Z,5.30
2018-04-22T12:44:30.598Z,5.35
2018-04-22T12:46:59.905Z,5.77
2018-04-22T12:49:29.213Z,4.70
2018-04-22T12:51:58.528Z,5.55
2018-04-22T12:54:27.814Z,5.72
2018-04-22T12:56:57.133Z,5.32
2018-04-22T12:59:26.437Z,5.05
2018-04-22T13:01:55.757Z,4.70
2018-04-22T13:04:25.677Z,4.80
2018-04-22T13:06:54.945Z,6.12
2018-04-22T13:09:24.246Z,4.90
2018-04-22T13:11:53.565Z,5.20
2018-04-22T13:14:22.857Z,6.03
2018-04-22T13:16:52.152Z,5.95
2018-04-22T13:19:21.481Z,5.35
2018-04-22T13:21:50.809Z,5.57
2018-04-22T13:24:20.109Z,4.97
2018-04-22T13:26:49.397Z,6.00
2018-04-22T13:29:18.733Z,5.45
2018-04-22T13:31:48.017Z,6.37
2018-04-22T13:34:17.336Z,5.43
2018-04-22T13:36:46.630Z,5.22
2018-04-22T13:39:15.919Z,5.35
2018-04-22T13:41:45.205Z,4.20
2018-04-22T13:44:15.657Z,5.15
2018-04-22T13:46:44.941Z,4.90
2018-04-22T13:49:15.007Z,4.95
2018-04-22T13:51:44.327Z,4.70
2018-04-22T13:54:13.621Z,4.50
2018-04-22T13:56:42.933Z,6.28
2018-04-22T13:59:12.226Z,4.68
2018-04-22T14:01:41.529Z,5.03
2018-04-22T14:04:10.823Z,5.15
2018-04-22T14:06:40.111Z,5.10
2018-04-22T14:09:09.407Z,5.55
2018-04-22T14:11:38.703Z,5.00
2018-04-22T14:14:08.005Z,4.90
2018-04-22T14:16:37.302Z,4.95
2018-04-22T14:19:06.659Z,5.05
2018-04-22T14:21:35.955Z,4.83
2018-04-22T14:26:41.436Z,5.03
2018-04-22T14:29:10.755Z,4.60
2018-04-22T14:31:40.040Z,4.40
2018-04-22T14:34:09.321Z,5.20
2018-04-22T14:36:39.402Z,5.00
2018-04-22T14:39:08.690Z,5.10
2018-04-22T14:41:38.161Z,5.35
2018-04-22T14:44:24.898Z,4.05
2018-04-22T14:46:54.206Z,4.45
2018-04-22T14:49:23.497Z,5.03
2018-04-22T14:51:52.803Z,4.68
2018-04-22T14:54:22.107Z,4.85
2018-04-22T14:56:51.442Z,5.20
2018-04-22T14:59:20.708Z,5.07
2018-04-22T15:01:49.993Z,4.20
2018-04-22T15:04:19.301Z,4.95
2018-04-22T15:06:48.598Z,5.43
2018-04-22T15:09:17.917Z,5.45
2018-04-22T15:11:47.208Z,4.75
2018-04-22T15:14:16.499Z,4.80
2018-04-22T15:16:45.842Z,4.87
2018-04-22T15:19:15.120Z,5.57
2018-04-22T15:21:44.424Z,5.05
2018-04-22T15:24:13.734Z,4.50
2018-04-22T15:26:43.828Z,4.05
2018-04-22T15:29:13.129Z,4.78
2018-04-22T15:31:42.408Z,4.57
2018-04-22T15:34:11.735Z,4.40
2018-04-22T15:36:41.013Z,4.53
2018-04-22T15:39:11.110Z,4.25
2018-04-22T15:41:41.185Z,4.47
2018-04-22T15:44:10.499Z,4.07
2018-04-22T15:46:39.794Z,4.90
2018-04-22T15:49:09.096Z,4.30
2018-04-22T15:51:38.394Z,3.95
2018-04-22T15:54:08.465Z,4.53
2018-04-22T15:56:37.743Z,4.90
2018-04-22T15:59:07.788Z,5.07
2018-04-22T16:01:37.094Z,4.43
2018-04-22T16:04:06.434Z,4.40
2018-04-22T16:06:35.742Z,4.75
2018-04-22T16:09:06.578Z,4.22
2018-04-22T16:11:35.870Z,4.90
2018-04-22T16:14:05.222Z,4.97
2018-04-22T16:16:35.260Z,4.70
2018-04-22T16:19:04.559Z,5.33
2018-04-22T16:21:33.861Z,4.97
2018-04-22T16:24:03.158Z,5.22
2018-04-22T16:26:32.468Z,5.43
2018-04-22T16:29:01.758Z,5.50
2018-04-22T16:31:31.117Z,4.75
2018-04-22T16:34:00.417Z,4.30
2018-04-22T16:36:30.479Z,4.90
2018-04-22T16:38:59.786Z,5.85
2018-04-22T16:41:29.132Z,5.20
2018-04-22T16:43:58.404Z,6.55
2018-04-22T16:46:27.684Z,5.10
2018-04-22T16:48:56.979Z,5.68
2018-04-22T16:51:26.286Z,5.37
2018-04-22T16:53:55.587Z,6.28
2018-04-22T16:56:24.893Z,6.82
2018-04-22T16:58:54.206Z,7.97
2018-04-22T17:01:23.517Z,7.65
2018-04-22T17:03:52.833Z,10.95
2018-04-22T17:06:23.207Z,8.52
2018-04-22T17:08:52.525Z,9.98
2018-04-22T17:11:22.351Z,13.20
2018-04-22T17:13:51.667Z,11.15
2018-04-22T17:16:20.980Z,10.02
2018-04-22T17:18:51.081Z,9.02
2018-04-22T17:21:20.439Z,8.90
2018-04-22T17:23:49.730Z,8.02
2018-04-22T17:26:19.022Z,7.20
2018-04-22T17:28:48.379Z,6.78
2018-04-22T17:31:18.443Z,6.80
2018-04-22T17:33:47.769Z,7.00
2018-04-22T17:36:17.038Z,6.68
2018-04-22T17:38:46.342Z,8.88
2018-04-22T17:41:15.640Z,7.65
2018-04-22T17:43:44.957Z,7.60
2018-04-22T17:46:14.327Z,6.97
2018-04-22T17:48:44.649Z,7.60
2018-04-22T17:51:13.947Z,7.30
2018-04-22T17:53:44.027Z,7.50
2018-04-22T17:56:13.346Z,8.30
2018-04-22T17:58:42.649Z,14.20
2018-04-22T18:01:11.949Z,11.95
2018-04-22T18:03:41.255Z,9.40
2018-04-22T18:06:10.573Z,9.23
2018-04-22T18:08:40.838Z,8.93
2018-04-22T18:11:10.175Z,9.98
2018-04-22T18:13:39.474Z,6.18
2018-04-22T18:16:08.749Z,4.55
2018-04-22T18:18:38.090Z,4.87
2018-04-22T18:21:07.415Z,4.78
2018-04-22T18:23:36.731Z,4.12
2018-04-22T18:26:06.048Z,4.30
2018-04-22T18:28:35.382Z,4.70
2018-04-22T18:31:09.497Z,4.40
2018-04-22T18:33:38.795Z,4.00
2018-04-22T18:36:08.106Z,4.85
2018-04-22T18:38:37.416Z,5.10
2018-04-22T18:41:06.671Z,4.95
2018-04-22T18:43:35.964Z,4.40
2018-04-22T18:46:05.301Z,4.30
2018-04-22T18:48:34.602Z,5.03
2018-04-22T18:51:03.914Z,4.43
2018-04-22T18:53:33.196Z,4.90
2018-04-22T18:56:02.500Z,4.40
2018-04-22T18:58:31.779Z,4.32
2018-04-22T19:01:01.069Z,4.75
2018-04-22T19:03:30.357Z,4.85
2018-04-22T19:05:59.631Z,4.90
2018-04-22T19:08:29.703Z,4.15
2018-04-22T19:10:59.549Z,4.65
2018-04-22T19:13:28.865Z,4.57
2018-04-22T19:15:58.147Z,3.75
2018-04-22T19:18:27.511Z,4.07
2018-04-22T19:20:56.799Z,4.03
2018-04-22T19:23:26.098Z,4.12
2018-04-22T19:25:55.388Z,4.65
2018-04-22T19:28:24.678Z,4.05
2018-04-22T19:30:54.785Z,4.10
2018-04-22T19:33:24.062Z,4.45
2018-04-22T19:35:53.340Z,4.03
2018-04-22T19:38:22.622Z,4.75
2018-04-22T19:40:51.918Z,4.22
2018-04-22T19:43:21.209Z,4.45
2018-04-22T19:45:50.507Z,4.55
2018-04-22T19:48:19.798Z,5.22
2018-04-22T19:50:49.851Z,6.07
2018-04-22T19:53:19.203Z,5.40
2018-04-22T19:55:48.495Z,5.68
2018-04-22T19:58:17.796Z,4.85
2018-04-22T20:00:47.089Z,5.25
2018-04-22T20:03:16.401Z,5.07
2018-04-22T20:05:45.669Z,5.57
2018-04-22T20:08:14.966Z,5.10
2018-04-22T20:10:44.251Z,5.55
2018-04-22T20:13:13.547Z,5.40
2018-04-22T20:15:42.845Z,5.45
2018-04-22T20:18:12.137Z,5.68
2018-04-22T20:20:41.433Z,5.87
2018-04-22T20:23:10.734Z,5.55
2018-04-22T20:25:40.015Z,5.57
2018-04-22T20:28:10.097Z,5.62
2018-04-22T20:30:39.424Z,5.72
2018-04-22T20:33:08.701Z,6.07
2018-04-22T20:35:37.992Z,5.20
2018-04-22T20:38:07.551Z,5.20
2018-04-22T20:40:36.855Z,6.65
2018-04-22T20:43:06.135Z,5.90
2018-04-22T20:45:36.234Z,5.68
2018-04-22T20:48:05.514Z,5.97
2018-04-22T20:50:34.800Z,5.97
2018-04-22T20:53:04.090Z,5.75
2018-04-22T20:55:33.394Z,5.62
2018-04-22T20:58:02.681Z,6.20
2018-04-22T21:00:31.972Z,5.28
2018-04-22T21:03:02.021Z,5.65
2018-04-22T21:05:31.314Z,5.57
2018-04-22T21:08:00.622Z,5.53
2018-04-22T21:10:29.909Z,5.18
2018-04-22T21:12:59.198Z,5.62
2018-04-22T21:15:28.498Z,5.35
2018-04-22T21:17:57.801Z,5.87
2018-04-22T21:20:27.085Z,5.07
2018-04-22T21:22:57.151Z,5.60
2018-04-22T21:25:26.440Z,4.82
2018-04-22T21:27:55.742Z,6.28
2018-04-22T21:30:25.031Z,5.60
2018-04-22T21:32:54.316Z,6.25
2018-04-22T21:35:23.620Z,5.60
2018-04-22T21:37:52.904Z,5.62
2018-04-22T21:40:22.969Z,5.82
2018-04-22T21:42:52.245Z,6.30
2018-04-22T21:45:21.549Z,5.18
2018-04-22T21:47:50.830Z,5.85
2018-04-22T21:50:20.128Z,6.32
2018-04-22T21:52:50.194Z,6.20
2018-04-22T21:55:19.478Z,6.70
2018-04-22T21:57:48.790Z,5.68
2018-04-22T22:00:18.075Z,6.20
2018-04-22T22:02:47.363Z,5.57
2018-04-22T22:05:16.658Z,6.35
2018-04-22T22:07:45.947Z,5.90
2018-04-22T22:10:16.020Z,6.22
2018-04-22T22:12:46.077Z,5.15
2018-04-22T22:15:15.524Z,5.95
2018-04-22T22:17:44.806Z,5.72
2018-04-22T22:20:14.114Z,6.00
2018-04-22T22:22:44.266Z,6.55
2018-04-22T22:25:13.572Z,6.05
2018-04-22T22:27:42.870Z,5.93
2018-04-22T22:30:12.154Z,6.07
2018-04-22T22:32:41.464Z,5.68
2018-04-22T22:35:11.059Z,6.25
2018-04-22T22:37:40.325Z,5.25
2018-04-22T22:40:09.601Z,5.40
2018-04-22T22:42:38.896Z,5.72
2018-04-22T22:45:08.185Z,5.30
2018-04-22T22:47:37.477Z,5.32
2018-04-22T22:50:06.754Z,5.70
2018-04-22T22:52:36.053Z,6.10
2018-04-22T22:55:05.376Z,5.80
2018-04-22T22:57:34.662Z,6.07
2018-04-22T23:00:04.026Z,5.70
2018-04-22T23:02:33.783Z,5.85
2018-04-22T23:05:03.091Z,5.82
2018-04-22T23:07:32.395Z,6.25
2018-04-22T23:10:01.689Z,5.93
2018-04-22T23:12:30.982Z,6.22
2018-04-22T23:15:00.277Z,6.28
2018-04-22T23:17:29.547Z,5.65
2018-04-22T23:19:58.835Z,6.70
2018-04-22T23:22:28.886Z,5.57
2018-04-22T23:24:58.195Z,6.90
2018-04-22T23:27:28.451Z,6.53
2018-04-22T23:29:57.745Z,5.82
2018-04-22T23:32:27.110Z,6.22
2018-04-22T23:34:56.363Z,6.43
2018-04-22T23:37:25.669Z,6.90
2018-04-22T23:39:55.726Z,6.75
2018-04-22T23:42:25.012Z,6.07
2018-04-22T23:44:54.296Z,6.30
2018-04-22T23:47:24.376Z,5.65
2018-04-22T23:49:53.663Z,6.62
2018-04-22T23:52:22.943Z,7.00
2018-04-22T23:54:52.237Z,6.53
2018-04-22T23:57:21.533Z,7.05
2018-04-22T23:59:50.825Z,6.75
